Time;durP1;ratioP1;P1;durP2;ratioP2;P2;SDS_P1;SDS_P2;PMS_P1;PMS_P2;Temp;Humidity;BMP_temperature;BMP_pressure;BME280_temperature;BME280_humidity;BME280_pressure;Samples;Min_cycle;Max_cycle;Signal;HPM_P1;HPM_P2
2021/05/16 00:02:20;;;;;;;32.95;3.50;;;;;;;;;;5009631;28;20461;-81
2021/05/16 00:04:45;;;;;;;28.17;3.50;;;;;;;;;;5008946;28;20013;-81
2021/05/16 00:07:10;;;;;;;35.55;4.03;;;;;;;;;;5008377;28;20400;-81
2021/05/16 00:09:36;;;;;;;27.98;3.22;;;;;;;;;;5009696;28;20429;-81
2021/05/16 00:12:01;;;;;;;31.65;3.85;;;;;;;;;;5008568;28;20022;-81
2021/05/16 00:14:26;;;;;;;27.63;3.45;;;;;;;;;;5007935;28;20105;-81
2021/05/16 00:16:53;;;;;;;37.13;4.50;;;;;;;;;;5008470;28;20052;-81
2021/05/16 00:19:18;;;;;;;21.90;3.60;;;;;;;;;;5009464;28;20022;-81
2021/05/16 00:21:44;;;;;;;33.63;3.90;;;;;;;;;;5009401;28;20457;-81
2021/05/16 00:24:09;;;;;;;28.75;4.40;;;;;;;;;;5008388;28;20049;-81
2021/05/16 00:26:34;;;;;;;23.52;3.80;;;;;;;;;;5008146;28;20025;-80
2021/05/16 00:28:59;;;;;;;25.05;4.57;;;;;;;;;;5010826;28;20021;-81
2021/05/16 00:31:25;;;;;;;34.67;5.65;;;;;;;;;;5009193;28;20018;-81
2021/05/16 00:33:50;;;;;;;27.48;3.75;;;;;;;;;;5008187;28;20681;-81
2021/05/16 00:36:15;;;;;;;20.80;3.30;;;;;;;;;;5007953;28;20017;-81
2021/05/16 00:38:40;;;;;;;36.85;4.43;;;;;;;;;;5007758;28;20150;-81
2021/05/16 00:41:05;;;;;;;26.80;3.42;;;;;;;;;;5009295;28;20473;-81
2021/05/16 00:43:31;;;;;;;25.55;3.45;;;;;;;;;;5007919;28;20041;-81
2021/05/16 00:45:56;;;;;;;31.00;4.40;;;;;;;;;;5007868;28;20064;-81
2021/05/16 00:48:21;;;;;;;26.65;4.30;;;;;;;;;;5024591;28;20430;-81
2021/05/16 00:50:48;;;;;;;33.38;4.40;;;;;;;;;;5008124;28;20034;-80
2021/05/16 00:53:13;;;;;;;30.65;4.25;;;;;;;;;;5009151;28;20022;-81
2021/05/16 00:55:38;;;;;;;24.95;3.53;;;;;;;;;;5007651;28;20827;-81
2021/05/16 00:58:04;;;;;;;33.10;4.28;;;;;;;;;;5009073;28;20024;-81
2021/05/16 01:00:40;;;;;;;21.77;4.15;;;;;;;;;;5007305;28;20464;-81
2021/05/16 01:03:06;;;;;;;20.50;3.53;;;;;;;;;;5009403;28;20013;-81
2021/05/16 01:05:31;;;;;;;33.80;4.63;;;;;;;;;;5021982;28;20021;-81
2021/05/16 01:07:56;;;;;;;25.17;4.13;;;;;;;;;;5011268;28;20045;-81
2021/05/16 01:10:22;;;;;;;24.25;4.30;;;;;;;;;;5012024;28;20389;-81
2021/05/16 01:12:50;;;;;;;23.98;3.92;;;;;;;;;;5010992;28;20125;-81
2021/05/16 01:15:17;;;;;;;22.67;4.40;;;;;;;;;;5009743;28;20538;-81
2021/05/16 01:17:42;;;;;;;27.83;4.10;;;;;;;;;;5011944;28;20461;-80
2021/05/16 01:20:09;;;;;;;18.13;4.55;;;;;;;;;;5010925;28;20109;-81
2021/05/16 01:22:34;;;;;;;29.63;4.95;;;;;;;;;;5010566;28;20026;-81
2021/05/16 01:25:00;;;;;;;21.42;4.97;;;;;;;;;;5012224;28;20084;-81
2021/05/16 01:27:25;;;;;;;26.52;4.00;;;;;;;;;;5019098;28;20502;-81
2021/05/16 01:29:50;;;;;;;29.33;4.47;;;;;;;;;;5011272;28;20032;-80
2021/05/16 01:32:20;;;;;;;28.00;4.53;;;;;;;;;;5018592;28;20024;-80
2021/05/16 01:34:45;;;;;;;22.75;4.22;;;;;;;;;;5010531;28;20017;-80
2021/05/16 01:37:11;;;;;;;26.42;4.22;;;;;;;;;;5010395;28;20018;-81
2021/05/16 01:39:37;;;;;;;20.15;4.05;;;;;;;;;;5010363;28;20022;-81
2021/05/16 01:42:03;;;;;;;37.33;4.22;;;;;;;;;;5010196;28;20079;-81
2021/05/16 01:44:31;;;;;;;34.25;4.88;;;;;;;;;;5012173;28;20024;-81
2021/05/16 01:47:00;;;;;;;26.17;4.47;;;;;;;;;;5011664;28;20075;-81
2021/05/16 01:49:26;;;;;;;26.17;4.53;;;;;;;;;;5011767;28;20026;-80
2021/05/16 01:51:51;;;;;;;25.67;4.22;;;;;;;;;;5010063;28;20029;-81
2021/05/16 01:54:16;;;;;;;27.50;3.95;;;;;;;;;;5010278;28;20530;-81
2021/05/16 01:56:42;;;;;;;23.45;3.67;;;;;;;;;;5010226;28;20075;-81
2021/05/16 01:59:07;;;;;;;24.75;3.22;;;;;;;;;;5009940;28;20491;-81
2021/05/16 02:01:32;;;;;;;22.23;3.50;;;;;;;;;;5010253;28;20037;-81
2021/05/16 02:03:58;;;;;;;16.75;2.65;;;;;;;;;;5011558;28;20152;-81
2021/05/16 02:06:24;;;;;;;25.00;4.75;;;;;;;;;;5010089;28;20437;-80
2021/05/16 02:08:50;;;;;;;22.73;3.72;;;;;;;;;;5011258;28;20030;-81
2021/05/16 02:11:15;;;;;;;28.35;3.63;;;;;;;;;;5010141;28;20075;-81
2021/05/16 02:13:42;;;;;;;29.70;4.25;;;;;;;;;;5010117;28;20026;-81
2021/05/16 02:16:08;;;;;;;25.58;3.67;;;;;;;;;;5009809;28;20022;-81
2021/05/16 02:18:33;;;;;;;24.17;3.05;;;;;;;;;;5011305;28;20025;-81
2021/05/16 02:20:59;;;;;;;23.05;3.55;;;;;;;;;;5026316;28;20404;-81
2021/05/16 02:23:25;;;;;;;22.33;2.72;;;;;;;;;;5011159;28;20037;-81
2021/05/16 02:25:50;;;;;;;32.60;5.10;;;;;;;;;;5011325;28;20026;-81
2021/05/16 02:28:15;;;;;;;21.92;2.90;;;;;;;;;;5009904;28;20495;-80
2021/05/16 02:30:41;;;;;;;22.05;4.10;;;;;;;;;;5009561;28;20109;-80
2021/05/16 02:33:06;;;;;;;16.33;2.80;;;;;;;;;;5025894;28;20112;-80
2021/05/16 02:35:31;;;;;;;15.40;2.60;;;;;;;;;;5024754;28;20453;-80
2021/05/16 02:37:56;;;;;;;23.63;3.90;;;;;;;;;;5010914;28;20016;-81
2021/05/16 02:40:21;;;;;;;19.80;3.38;;;;;;;;;;5009290;28;20056;-81
2021/05/16 02:42:47;;;;;;;24.38;3.22;;;;;;;;;;5010622;28;20060;-80
2021/05/16 02:45:12;;;;;;;19.80;3.10;;;;;;;;;;5009744;28;20022;-81
2021/05/16 02:47:37;;;;;;;17.60;2.80;;;;;;;;;;5025963;28;20022;-81
2021/05/16 02:50:03;;;;;;;17.48;3.42;;;;;;;;;;5010907;28;20469;-81
2021/05/16 02:52:28;;;;;;;16.30;3.58;;;;;;;;;;5010285;28;20115;-81
2021/05/16 02:54:54;;;;;;;26.40;3.90;;;;;;;;;;5007817;28;20022;-81
2021/05/16 02:57:19;;;;;;;15.85;2.90;;;;;;;;;;5009142;28;20491;-81
2021/05/16 02:59:44;;;;;;;14.77;2.88;;;;;;;;;;5007120;28;20010;-81
2021/05/16 03:02:11;;;;;;;24.45;3.70;;;;;;;;;;5009349;28;20481;-80
2021/05/16 03:04:36;;;;;;;30.15;4.72;;;;;;;;;;5008818;28;20082;-81
2021/05/16 03:07:01;;;;;;;15.85;3.17;;;;;;;;;;5008728;28;20035;-81
2021/05/16 03:09:29;;;;;;;14.63;2.92;;;;;;;;;;5023433;28;20417;-81
2021/05/16 03:11:54;;;;;;;19.33;3.35;;;;;;;;;;5008980;28;20074;-81
2021/05/16 03:14:19;;;;;;;17.60;3.78;;;;;;;;;;5008451;28;20018;-81
2021/05/16 03:16:44;;;;;;;12.13;3.15;;;;;;;;;;5008962;28;20021;-81
2021/05/16 03:19:10;;;;;;;16.05;2.92;;;;;;;;;;5008200;28;20068;-81
2021/05/16 03:21:35;;;;;;;13.75;2.88;;;;;;;;;;5010189;28;20109;-81
2021/05/16 03:24:00;;;;;;;22.88;3.30;;;;;;;;;;5008955;28;20106;-81
2021/05/16 03:26:25;;;;;;;23.88;3.30;;;;;;;;;;5008514;28;20121;-80
2021/05/16 03:28:51;;;;;;;21.63;3.92;;;;;;;;;;5010603;28;20405;-80
2021/05/16 03:31:16;;;;;;;20.25;2.97;;;;;;;;;;5010051;28;20029;-80
2021/05/16 03:33:41;;;;;;;14.90;3.28;;;;;;;;;;5008396;28;20026;-80
2021/05/16 03:36:06;;;;;;;11.05;2.38;;;;;;;;;;5010058;28;20326;-80
2021/05/16 03:38:32;;;;;;;20.27;3.40;;;;;;;;;;5021924;28;20030;-80
2021/05/16 03:40:57;;;;;;;12.30;2.90;;;;;;;;;;5025418;28;20391;-80
2021/05/16 03:43:22;;;;;;;14.32;2.75;;;;;;;;;;5009990;28;20044;-80
2021/05/16 03:45:48;;;;;;;10.27;3.35;;;;;;;;;;5020352;28;20048;-80
2021/05/16 03:48:13;;;;;;;13.60;2.77;;;;;;;;;;5010064;28;20075;-80
2021/05/16 03:50:38;;;;;;;13.13;2.95;;;;;;;;;;5009700;28;20032;-81
2021/05/16 03:53:04;;;;;;;14.98;2.58;;;;;;;;;;5008752;28;20037;-80
2021/05/16 03:55:29;;;;;;;13.98;2.90;;;;;;;;;;5009854;28;20026;-81
2021/05/16 03:57:54;;;;;;;17.65;4.47;;;;;;;;;;5009874;28;20024;-80
2021/05/16 04:00:19;;;;;;;17.33;3.85;;;;;;;;;;5009647;28;20029;-80
2021/05/16 04:02:45;;;;;;;17.17;2.67;;;;;;;;;;5008355;28;20435;-80
2021/05/16 04:05:11;;;;;;;9.98;2.25;;;;;;;;;;5008216;28;20465;-80
2021/05/16 04:07:37;;;;;;;14.40;2.90;;;;;;;;;;5008483;28;20021;-81
2021/05/16 04:10:03;;;;;;;17.65;3.17;;;;;;;;;;5003016;28;20034;-80
2021/05/16 04:12:28;;;;;;;17.27;2.90;;;;;;;;;;5009450;28;20033;-80
2021/05/16 04:14:53;;;;;;;16.23;3.22;;;;;;;;;;5009792;28;20417;-81
2021/05/16 04:17:19;;;;;;;12.10;2.30;;;;;;;;;;5008650;28;20030;-81
2021/05/16 04:19:44;;;;;;;16.08;3.47;;;;;;;;;;5009637;28;20049;-81
2021/05/16 04:22:09;;;;;;;19.38;4.13;;;;;;;;;;5008445;28;20369;-81
2021/05/16 04:24:34;;;;;;;19.85;2.90;;;;;;;;;;5008134;28;20022;-80
2021/05/16 04:27:00;;;;;;;14.20;2.45;;;;;;;;;;5015548;28;20583;-80
2021/05/16 04:29:25;;;;;;;15.40;2.45;;;;;;;;;;5008219;28;20425;-80
2021/05/16 04:31:50;;;;;;;25.75;3.65;;;;;;;;;;5009668;28;20094;-81
2021/05/16 04:34:15;;;;;;;18.83;3.20;;;;;;;;;;5007967;28;20024;-81
2021/05/16 04:36:41;;;;;;;18.25;2.90;;;;;;;;;;5009408;28;20018;-80
2021/05/16 04:39:06;;;;;;;11.95;2.88;;;;;;;;;;5011704;28;20022;-81
2021/05/16 04:41:33;;;;;;;19.60;2.90;;;;;;;;;;5011495;28;20022;-81
2021/05/16 04:43:58;;;;;;;19.95;2.92;;;;;;;;;;5011540;28;20025;-80
2021/05/16 04:46:23;;;;;;;19.05;3.20;;;;;;;;;;5011299;28;20021;-80
2021/05/16 04:48:48;;;;;;;15.77;3.00;;;;;;;;;;5027876;28;20086;-80
2021/05/16 04:51:14;;;;;;;20.48;3.97;;;;;;;;;;5011163;28;20096;-81
2021/05/16 04:53:39;;;;;;;12.80;3.40;;;;;;;;;;5011317;28;20026;-81
2021/05/16 04:56:04;;;;;;;18.30;3.80;;;;;;;;;;5027829;28;20033;-81
2021/05/16 04:58:30;;;;;;;15.70;3.35;;;;;;;;;;5010919;28;20362;-81
2021/05/16 05:00:55;;;;;;;18.90;4.57;;;;;;;;;;5010812;28;20126;-81
2021/05/16 05:03:22;;;;;;;24.45;5.50;;;;;;;;;;5011235;28;20021;-80
2021/05/16 05:05:47;;;;;;;25.83;4.22;;;;;;;;;;5010681;28;20113;-81
2021/05/16 05:08:12;;;;;;;21.15;4.20;;;;;;;;;;5018135;28;20078;-81
2021/05/16 05:10:38;;;;;;;20.60;4.07;;;;;;;;;;5015354;28;20017;-81
2021/05/16 05:13:03;;;;;;;17.92;4.70;;;;;;;;;;5009374;28;20029;-81
2021/05/16 05:15:28;;;;;;;24.88;6.00;;;;;;;;;;5010252;28;20045;-80
2021/05/16 05:17:53;;;;;;;23.80;5.75;;;;;;;;;;5010424;28;20454;-80
2021/05/16 05:20:18;;;;;;;17.05;5.95;;;;;;;;;;5009157;28;20049;-80
2021/05/16 05:22:43;;;;;;;26.13;4.70;;;;;;;;;;5009198;28;20028;-80
2021/05/16 05:25:09;;;;;;;21.70;5.07;;;;;;;;;;5008966;28;20025;-80
2021/05/16 05:27:34;;;;;;;14.00;4.78;;;;;;;;;;5010222;28;20075;-80
2021/05/16 05:30:00;;;;;;;21.05;5.53;;;;;;;;;;5010212;28;20057;-80
2021/05/16 05:32:25;;;;;;;23.60;5.97;;;;;;;;;;5027379;28;20112;-80
2021/05/16 05:34:50;;;;;;;20.75;5.82;;;;;;;;;;5013458;28;20029;-81
2021/05/16 05:37:15;;;;;;;20.13;5.30;;;;;;;;;;5021716;28;20036;-80
2021/05/16 05:39:40;;;;;;;23.10;6.22;;;;;;;;;;5011744;28;20022;-80
2021/05/16 05:42:06;;;;;;;23.13;6.40;;;;;;;;;;5010104;28;20030;-80
2021/05/16 05:44:31;;;;;;;24.10;6.03;;;;;;;;;;5010793;28;20053;-80
2021/05/16 05:46:57;;;;;;;22.33;6.32;;;;;;;;;;5009028;28;20014;-80
2021/05/16 05:49:23;;;;;;;21.42;6.35;;;;;;;;;;5010578;28;20501;-80
2021/05/16 05:51:48;;;;;;;18.95;4.97;;;;;;;;;;5025633;28;20710;-81
2021/05/16 05:54:13;;;;;;;17.58;4.50;;;;;;;;;;5010665;28;20010;-81
2021/05/16 05:56:38;;;;;;;21.83;5.45;;;;;;;;;;5009508;28;20064;-80
2021/05/16 05:59:04;;;;;;;22.40;5.70;;;;;;;;;;5009835;28;20385;-80
2021/05/16 06:01:29;;;;;;;20.83;5.47;;;;;;;;;;5009234;28;20026;-80
2021/05/16 06:03:54;;;;;;;25.77;6.00;;;;;;;;;;5010403;28;20025;-81
2021/05/16 06:06:19;;;;;;;19.30;5.10;;;;;;;;;;5011323;28;20025;-81
2021/05/16 06:08:44;;;;;;;33.42;6.93;;;;;;;;;;5025630;28;20381;-81
2021/05/16 06:11:10;;;;;;;26.27;6.53;;;;;;;;;;5043600;28;20131;-81
2021/05/16 06:13:35;;;;;;;27.98;6.78;;;;;;;;;;5043846;28;20010;-80
2021/05/16 06:16:00;;;;;;;21.58;5.90;;;;;;;;;;5009025;28;20056;-80
2021/05/16 06:18:25;;;;;;;31.25;6.40;;;;;;;;;;5010200;28;20357;-80
2021/05/16 06:20:51;;;;;;;25.70;6.32;;;;;;;;;;5009698;28;20060;-81
2021/05/16 06:23:18;;;;;;;27.10;6.10;;;;;;;;;;5043430;28;20031;-80
2021/05/16 06:25:43;;;;;;;34.10;7.82;;;;;;;;;;5032736;28;20037;-81
2021/05/16 06:28:09;;;;;;;25.33;6.18;;;;;;;;;;5015536;28;20026;-80
2021/05/16 06:30:34;;;;;;;36.40;6.53;;;;;;;;;;5008750;28;20064;-80
2021/05/16 06:32:59;;;;;;;30.60;6.05;;;;;;;;;;5008421;28;20033;-80
2021/05/16 06:35:24;;;;;;;26.92;6.72;;;;;;;;;;5008605;28;20552;-80
2021/05/16 06:37:50;;;;;;;31.17;6.70;;;;;;;;;;5009020;28;20026;-86
2021/05/16 06:40:15;;;;;;;25.65;5.30;;;;;;;;;;5061028;28;20082;-86
2021/05/16 06:42:41;;;;;;;17.00;4.70;;;;;;;;;;5012485;28;581641;-86
2021/05/16 06:45:07;;;;;;;35.53;5.90;;;;;;;;;;5011558;28;20026;-86
2021/05/16 06:47:32;;;;;;;27.75;4.95;;;;;;;;;;5009191;28;20060;-86
2021/05/16 06:49:57;;;;;;;22.92;4.75;;;;;;;;;;5009448;28;20028;-85
2021/05/16 06:52:22;;;;;;;34.72;4.93;;;;;;;;;;5010774;28;20083;-80
2021/05/16 06:54:48;;;;;;;23.35;4.15;;;;;;;;;;5017987;28;20021;-80
2021/05/16 06:57:14;;;;;;;24.38;4.57;;;;;;;;;;5066535;28;20023;-80
2021/05/16 06:59:39;;;;;;;23.55;4.22;;;;;;;;;;5012008;28;20453;-80
2021/05/16 07:02:05;;;;;;;26.15;4.80;;;;;;;;;;5011163;28;20025;-81
2021/05/16 07:04:30;;;;;;;22.45;4.05;;;;;;;;;;5048187;28;20060;-81
2021/05/16 07:06:55;;;;;;;29.42;5.03;;;;;;;;;;5037181;28;20022;-80
2021/05/16 07:09:20;;;;;;;26.15;4.57;;;;;;;;;;5082078;28;20066;-80
2021/05/16 07:11:45;;;;;;;26.27;4.22;;;;;;;;;;5080162;28;20016;-81
2021/05/16 07:14:10;;;;;;;28.83;4.25;;;;;;;;;;5060130;28;20052;-80
2021/05/16 07:16:36;;;;;;;24.83;3.85;;;;;;;;;;5008695;28;20418;-80
2021/05/16 07:19:02;;;;;;;23.13;3.88;;;;;;;;;;5026170;28;20033;-80
2021/05/16 07:21:27;;;;;;;26.35;3.45;;;;;;;;;;5009743;28;20036;-80
2021/05/16 07:23:52;;;;;;;25.20;4.85;;;;;;;;;;5009795;28;20022;-80
2021/05/16 07:26:18;;;;;;;25.23;3.92;;;;;;;;;;5074054;28;20395;-86
2021/05/16 07:28:43;;;;;;;25.77;3.70;;;;;;;;;;5060853;28;20026;-87
2021/05/16 07:31:09;;;;;;;25.88;4.82;;;;;;;;;;5037895;27;20021;-86
2021/05/16 07:33:34;;;;;;;23.70;3.47;;;;;;;;;;5049560;28;20021;-85
2021/05/16 07:35:59;;;;;;;23.92;3.22;;;;;;;;;;5066624;27;20088;-86
2021/05/16 07:38:24;;;;;;;23.00;4.43;;;;;;;;;;5010744;28;20092;-86
2021/05/16 07:40:50;;;;;;;26.60;3.42;;;;;;;;;;5056912;27;20030;-86
2021/05/16 07:43:15;;;;;;;23.55;2.85;;;;;;;;;;5040749;28;20057;-85
2021/05/16 07:45:40;;;;;;;25.27;3.50;;;;;;;;;;5056493;28;20064;-83
2021/05/16 07:48:06;;;;;;;26.55;3.03;;;;;;;;;;5041550;28;20050;-86
2021/05/16 07:50:31;;;;;;;28.83;3.05;;;;;;;;;;5009845;28;20026;-84
2021/05/16 07:52:59;;;;;;;18.73;2.67;;;;;;;;;;5023255;28;20030;-84
2021/05/16 07:55:24;;;;;;;27.20;2.70;;;;;;;;;;5004739;28;20500;-83
2021/05/16 07:57:50;;;;;;;18.27;2.95;;;;;;;;;;5042949;28;20010;-83
2021/05/16 08:00:15;;;;;;;19.00;2.45;;;;;;;;;;5055572;28;20016;-83
2021/05/16 08:02:41;;;;;;;25.85;3.38;;;;;;;;;;5022288;28;20074;-83
2021/05/16 08:05:07;;;;;;;21.38;2.25;;;;;;;;;;5055130;28;20031;-83
2021/05/16 08:07:32;;;;;;;25.02;3.20;;;;;;;;;;5074147;28;20018;-84
2021/05/16 08:09:57;;;;;;;22.75;2.72;;;;;;;;;;5012634;28;20542;-84
2021/05/16 08:12:22;;;;;;;21.60;2.83;;;;;;;;;;5093234;28;20023;-83
2021/05/16 08:14:48;;;;;;;21.83;3.15;;;;;;;;;;5033804;28;20014;-83
2021/05/16 08:17:14;;;;;;;18.75;3.05;;;;;;;;;;5041081;28;20023;-83
2021/05/16 08:19:39;;;;;;;25.77;3.17;;;;;;;;;;5030890;28;20079;-83
2021/05/16 08:22:06;;;;;;;27.65;4.15;;;;;;;;;;5031492;28;20019;-83
2021/05/16 08:24:32;;;;;;;20.95;3.03;;;;;;;;;;5029217;28;20038;-83
2021/05/16 08:26:57;;;;;;;26.33;4.38;;;;;;;;;;5035260;28;20046;-83
2021/05/16 08:29:22;;;;;;;33.60;4.28;;;;;;;;;;5022330;28;20113;-83
2021/05/16 08:31:47;;;;;;;29.02;3.90;;;;;;;;;;5054804;28;20086;-82
2021/05/16 08:34:12;;;;;;;21.55;4.18;;;;;;;;;;5035900;28;20082;-83
2021/05/16 08:36:38;;;;;;;16.70;3.28;;;;;;;;;;5021850;28;20093;-83
2021/05/16 08:39:05;;;;;;;28.70;4.90;;;;;;;;;;5019092;28;20014;-82
2021/05/16 08:41:31;;;;;;;16.55;3.47;;;;;;;;;;5040673;28;20023;-83
2021/05/16 08:43:56;;;;;;;28.25;4.03;;;;;;;;;;5078781;28;20109;-82
2021/05/16 08:46:22;;;;;;;26.17;4.05;;;;;;;;;;5058568;28;20120;-82
2021/05/16 08:48:47;;;;;;;26.27;5.00;;;;;;;;;;5030156;28;20041;-83
2021/05/16 08:51:14;;;;;;;20.90;3.88;;;;;;;;;;5030309;28;20018;-83
2021/05/16 08:53:40;;;;;;;16.13;3.40;;;;;;;;;;5049764;28;20358;-83
2021/05/16 08:56:06;;;;;;;17.90;3.35;;;;;;;;;;5053120;28;20054;-83
2021/05/16 08:58:32;;;;;;;16.33;3.40;;;;;;;;;;5011560;28;20488;-83
2021/05/16 09:00:57;;;;;;;18.42;3.53;;;;;;;;;;5009286;28;20018;-83
2021/05/16 09:03:22;;;;;;;14.15;3.03;;;;;;;;;;5018755;28;20061;-83
2021/05/16 09:05:51;;;;;;;22.92;3.17;;;;;;;;;;5057286;28;20033;-83
2021/05/16 09:08:18;;;;;;;16.38;3.50;;;;;;;;;;5016109;28;20031;-83
2021/05/16 09:10:44;;;;;;;13.77;3.75;;;;;;;;;;5008469;28;20358;-83
2021/05/16 09:13:16;;;;;;;27.08;4.22;;;;;;;;;;5023423;28;20027;-83
2021/05/16 09:15:42;;;;;;;25.45;4.00;;;;;;;;;;5011243;28;20049;-83
2021/05/16 09:18:07;;;;;;;18.08;3.70;;;;;;;;;;5078184;28;20069;-83
2021/05/16 09:20:32;;;;;;;21.17;4.43;;;;;;;;;;5029320;28;20021;-83
2021/05/16 09:22:58;;;;;;;23.25;4.00;;;;;;;;;;5009923;28;20119;-83
2021/05/16 09:25:29;;;;;;;24.25;5.05;;;;;;;;;;5018834;28;20026;-83
2021/05/16 09:28:13;;;;;;;20.63;4.65;;;;;;;;;;5026201;28;20097;-83
2021/05/16 09:30:39;;;;;;;18.95;3.70;;;;;;;;;;5031793;27;20036;-83
2021/05/16 09:33:07;;;;;;;24.02;4.63;;;;;;;;;;5038085;28;20026;-83
2021/05/16 09:35:33;;;;;;;18.30;3.88;;;;;;;;;;5028839;28;20407;-84
2021/05/16 09:38:03;;;;;;;20.33;3.20;;;;;;;;;;5042636;28;20079;-83
2021/05/16 09:40:29;;;;;;;9.68;2.50;;;;;;;;;;5056608;28;20026;-80
2021/05/16 09:43:07;;;;;;;20.48;4.32;;;;;;;;;;5017889;28;20026;-80
2021/05/16 09:45:49;;;;;;;20.85;3.33;;;;;;;;;;5047795;27;20029;-80
2021/05/16 09:48:29;;;;;;;13.43;2.90;;;;;;;;;;5021341;28;20032;-81
2021/05/16 09:51:16;;;;;;;15.25;2.45;;;;;;;;;;5012235;28;20411;-80
2021/05/16 09:53:48;;;;;;;16.48;2.80;;;;;;;;;;5046635;28;20026;-80
2021/05/16 09:56:16;;;;;;;16.25;2.60;;;;;;;;;;5050426;28;20018;-80
2021/05/16 09:58:41;;;;;;;20.60;2.97;;;;;;;;;;5051341;28;20098;-81
2021/05/16 10:01:07;;;;;;;16.50;2.38;;;;;;;;;;5025687;28;20444;-80
2021/05/16 10:03:32;;;;;;;14.02;2.85;;;;;;;;;;5044125;28;20482;-80
2021/05/16 10:05:58;;;;;;;12.25;2.92;;;;;;;;;;5086770;28;20362;-80
2021/05/16 10:08:23;;;;;;;19.05;3.15;;;;;;;;;;5024993;28;20019;-81
2021/05/16 10:10:48;;;;;;;14.52;2.38;;;;;;;;;;5026252;28;20275;-81
2021/05/16 10:13:14;;;;;;;14.18;2.97;;;;;;;;;;5067605;27;20012;-82
2021/05/16 10:15:43;;;;;;;18.55;2.88;;;;;;;;;;5082380;28;20069;-81
2021/05/16 10:18:09;;;;;;;17.65;3.17;;;;;;;;;;5044012;28;20012;-81
2021/05/16 10:20:37;;;;;;;15.95;3.53;;;;;;;;;;5056819;28;20370;-81
2021/05/16 10:23:04;;;;;;;11.57;2.40;;;;;;;;;;5036278;28;20025;-81
2021/05/16 10:25:46;;;;;;;12.18;2.63;;;;;;;;;;5018037;28;21629;-81
2021/05/16 10:28:16;;;;;;;24.83;3.72;;;;;;;;;;5018948;28;20048;-81
2021/05/16 10:31:00;;;;;;;21.13;4.03;;;;;;;;;;5019280;28;20465;-81
2021/05/16 10:33:29;;;;;;;19.63;3.13;;;;;;;;;;5087892;28;20432;-81
2021/05/16 10:35:54;;;;;;;12.73;3.10;;;;;;;;;;5057210;28;20079;-81
2021/05/16 10:38:40;;;;;;;19.27;3.95;;;;;;;;;;5024098;28;20453;-81
2021/05/16 10:41:25;;;;;;;18.20;3.20;;;;;;;;;;5034102;28;20102;-81
2021/05/16 10:43:50;;;;;;;8.57;2.25;;;;;;;;;;5017304;28;20087;-82
2021/05/16 10:46:40;;;;;;;15.45;2.22;;;;;;;;;;5071067;28;20030;-81
2021/05/16 10:49:24;;;;;;;11.02;1.80;;;;;;;;;;5018311;28;20034;-82
2021/05/16 10:51:49;;;;;;;19.23;2.13;;;;;;;;;;5024085;28;20477;-82
2021/05/16 10:54:27;;;;;;;12.50;1.92;;;;;;;;;;5014678;28;20022;-82
2021/05/16 10:57:16;;;;;;;13.20;2.47;;;;;;;;;;5027999;28;20016;-81
2021/05/16 10:59:41;;;;;;;19.27;2.35;;;;;;;;;;5002937;28;20034;-82
2021/05/16 11:02:07;;;;;;;13.95;3.22;;;;;;;;;;5065795;28;20390;-81
2021/05/16 11:04:48;;;;;;;9.73;1.60;;;;;;;;;;5016988;28;20083;-81
2021/05/16 11:07:36;;;;;;;8.13;1.40;;;;;;;;;;5029319;28;20030;-82
2021/05/16 11:10:20;;;;;;;10.35;1.45;;;;;;;;;;5048469;28;20037;-81
2021/05/16 11:12:45;;;;;;;9.93;1.05;;;;;;;;;;5032577;28;20075;-81
2021/05/16 11:15:21;;;;;;;8.90;1.00;;;;;;;;;;5018208;28;20018;-81
2021/05/16 11:17:47;;;;;;;14.07;1.10;;;;;;;;;;5023349;28;20030;-81
2021/05/16 11:20:12;;;;;;;6.10;0.82;;;;;;;;;;5024583;28;20033;-81
2021/05/16 11:22:41;;;;;;;5.93;0.70;;;;;;;;;;5039857;28;20022;-81
2021/05/16 11:25:08;;;;;;;5.13;1.00;;;;;;;;;;5011418;28;20026;-81
2021/05/16 11:27:33;;;;;;;5.47;0.80;;;;;;;;;;5011657;28;20045;-81
2021/05/16 11:30:00;;;;;;;5.00;0.80;;;;;;;;;;5015171;28;20025;-81
2021/05/16 11:32:30;;;;;;;10.05;1.00;;;;;;;;;;5017875;28;20045;-81
2021/05/16 11:35:01;;;;;;;7.03;1.13;;;;;;;;;;5011778;28;20125;-81
2021/05/16 11:37:27;;;;;;;8.05;1.08;;;;;;;;;;5019584;28;20097;-81
2021/05/16 11:39:52;;;;;;;8.38;1.00;;;;;;;;;;5039563;28;20057;-81
2021/05/16 11:42:32;;;;;;;8.57;1.15;;;;;;;;;;5066040;28;20033;-81
2021/05/16 11:44:57;;;;;;;10.98;1.55;;;;;;;;;;5028559;28;20029;-81
2021/05/16 11:47:39;;;;;;;14.15;2.10;;;;;;;;;;5017127;28;20465;-80
2021/05/16 11:50:05;;;;;;;12.30;1.80;;;;;;;;;;5011200;28;20097;-80
2021/05/16 11:52:30;;;;;;;5.88;1.10;;;;;;;;;;5008970;28;20050;-80
2021/05/16 11:55:01;;;;;;;9.77;1.42;;;;;;;;;;5003273;28;20061;-80
2021/05/16 11:57:26;;;;;;;6.20;0.93;;;;;;;;;;5011136;28;20528;-80
2021/05/16 11:59:52;;;;;;;7.10;1.10;;;;;;;;;;5021827;28;20102;-81
2021/05/16 12:02:17;;;;;;;8.82;0.85;;;;;;;;;;5010496;28;20030;-81
2021/05/16 12:04:42;;;;;;;1.10;0.70;;;;;;;;;;5025597;28;20056;-81
2021/05/16 12:07:08;;;;;;;6.53;0.82;;;;;;;;;;5009423;28;20163;-81
2021/05/16 12:09:37;;;;;;;3.92;0.70;;;;;;;;;;5013746;28;20066;-81
2021/05/16 12:12:02;;;;;;;6.32;1.10;;;;;;;;;;5010483;28;20057;-81
2021/05/16 12:14:28;;;;;;;1.80;0.70;;;;;;;;;;5009279;28;20025;-81
2021/05/16 12:16:54;;;;;;;3.47;0.90;;;;;;;;;;5010413;28;20802;-81
2021/05/16 12:19:20;;;;;;;4.00;0.60;;;;;;;;;;5018103;28;20018;-81
2021/05/16 12:21:48;;;;;;;5.50;1.02;;;;;;;;;;5047044;28;20062;-81
2021/05/16 12:24:15;;;;;;;3.83;0.73;;;;;;;;;;5042252;28;20046;-81
2021/05/16 12:26:40;;;;;;;4.25;0.90;;;;;;;;;;5009791;28;20029;-80
2021/05/16 12:29:06;;;;;;;6.07;0.90;;;;;;;;;;5019016;28;20022;-80
2021/05/16 12:31:31;;;;;;;3.45;0.70;;;;;;;;;;5009647;28;20552;-80
2021/05/16 12:34:06;;;;;;;5.53;1.00;;;;;;;;;;5009094;28;20010;-80
2021/05/16 12:36:50;;;;;;;5.95;0.90;;;;;;;;;;5076900;28;20103;-80
2021/05/16 12:39:34;;;;;;;1.98;0.47;;;;;;;;;;5019404;28;20025;-80
2021/05/16 12:41:59;;;;;;;6.47;1.20;;;;;;;;;;5008578;28;20112;-81
2021/05/16 12:44:24;;;;;;;4.95;0.80;;;;;;;;;;5025309;28;20160;-80
2021/05/16 12:46:51;;;;;;;6.43;0.90;;;;;;;;;;5016893;28;20029;-80
2021/05/16 12:49:26;;;;;;;6.88;1.05;;;;;;;;;;5008603;28;20022;-80
2021/05/16 12:52:04;;;;;;;6.85;1.05;;;;;;;;;;5010031;28;20033;-80
2021/05/16 12:54:30;;;;;;;2.50;0.60;;;;;;;;;;5008634;28;20014;-81
2021/05/16 12:57:04;;;;;;;1.85;0.55;;;;;;;;;;5023887;28;20362;-81
2021/05/16 12:59:33;;;;;;;3.10;0.65;;;;;;;;;;5009826;28;20055;-80
2021/05/16 13:02:04;;;;;;;4.30;0.80;;;;;;;;;;5012536;28;20030;-80
2021/05/16 13:04:29;;;;;;;1.85;0.60;;;;;;;;;;5010037;28;20030;-81
2021/05/16 13:06:55;;;;;;;4.88;0.68;;;;;;;;;;5013388;28;20067;-81
2021/05/16 13:09:26;;;;;;;2.60;0.63;;;;;;;;;;5011797;28;20083;-81
2021/05/16 13:11:54;;;;;;;2.37;0.60;;;;;;;;;;5011938;28;20014;-81
2021/05/16 13:14:27;;;;;;;4.45;0.88;;;;;;;;;;5013192;28;20294;-81
2021/05/16 13:16:52;;;;;;;;;;;;;;;;;;5028876;28;20025;-81
2021/05/16 13:19:31;;;;;;;2.80;0.70;;;;;;;;;;5012730;28;19910;-81
2021/05/16 13:21:56;;;;;;;2.97;0.52;;;;;;;;;;5013128;28;20372;-81
2021/05/16 13:24:21;;;;;;;3.50;0.50;;;;;;;;;;5011675;28;20022;-81
2021/05/16 13:26:51;;;;;;;1.17;0.30;;;;;;;;;;5012962;28;20026;-81
2021/05/16 13:29:16;;;;;;;2.50;0.50;;;;;;;;;;5013107;28;20025;-81
2021/05/16 13:31:41;;;;;;;2.67;0.57;;;;;;;;;;5012740;28;20066;-81
2021/05/16 13:34:14;;;;;;;2.90;0.60;;;;;;;;;;5034343;28;20534;-81
2021/05/16 13:36:39;;;;;;;3.50;0.63;;;;;;;;;;5065791;28;20469;-81
2021/05/16 13:39:05;;;;;;;1.98;0.55;;;;;;;;;;5066403;28;20047;-80
2021/05/16 13:41:30;;;;;;;1.17;0.52;;;;;;;;;;5043588;28;20023;-80
2021/05/16 13:43:55;;;;;;;3.05;0.60;;;;;;;;;;5033163;28;20023;-80
2021/05/16 13:46:20;;;;;;;5.57;0.93;;;;;;;;;;5039547;28;20025;-80
2021/05/16 13:48:45;;;;;;;3.58;0.60;;;;;;;;;;5011521;28;20022;-80
2021/05/16 13:51:10;;;;;;;5.95;0.73;;;;;;;;;;5025185;28;20065;-80
2021/05/16 13:53:36;;;;;;;2.70;0.88;;;;;;;;;;5037523;28;20030;-80
2021/05/16 13:56:01;;;;;;;7.95;0.77;;;;;;;;;;5029334;28;20469;-80
2021/05/16 13:58:27;;;;;;;2.30;0.63;;;;;;;;;;5012908;28;20466;-80
2021/05/16 14:00:52;;;;;;;6.53;1.48;;;;;;;;;;5013071;28;20022;-80
2021/05/16 14:03:17;;;;;;;3.40;0.80;;;;;;;;;;5077312;27;20027;-80
2021/05/16 14:05:43;;;;;;;1.65;0.63;;;;;;;;;;5026148;28;20029;-81
2021/05/16 14:08:08;;;;;;;5.45;0.60;;;;;;;;;;5012251;28;20057;-81
2021/05/16 14:10:33;;;;;;;1.98;0.60;;;;;;;;;;5027159;28;20026;-82
2021/05/16 14:12:58;;;;;;;3.13;0.50;;;;;;;;;;5067011;27;20082;-81
2021/05/16 14:15:23;;;;;;;1.48;0.70;;;;;;;;;;5023149;28;20018;-81
2021/05/16 14:17:48;;;;;;;2.13;0.63;;;;;;;;;;5010988;28;20241;-81
2021/05/16 14:20:14;;;;;;;4.32;0.68;;;;;;;;;;5012081;28;20026;-81
2021/05/16 14:22:39;;;;;;;5.93;0.60;;;;;;;;;;5050920;28;20023;-81
2021/05/16 14:25:05;;;;;;;3.97;0.60;;;;;;;;;;5052375;28;20438;-81
2021/05/16 14:27:32;;;;;;;3.20;0.68;;;;;;;;;;5032555;28;20023;-82
2021/05/16 14:29:58;;;;;;;2.47;0.52;;;;;;;;;;5018618;28;20071;-81
2021/05/16 14:32:23;;;;;;;4.30;0.60;;;;;;;;;;5059820;28;20023;-81